sensor_id;sensor_type;location;lat;lon;timestamp;P1;durP1;ratioP1;P2;durP2;ratioP2
18387;SDS011;9320;50.256;19.026;2023-05-21T00:01:31;21.63;;;14.85;;
18387;SDS011;9320;50.256;19.026;2023-05-21T00:04:01;21.65;;;15.30;;
18387;SDS011;9320;50.256;19.026;2023-05-21T00:06:29;18.42;;;14.38;;
18387;SDS011;9320;50.256;19.026;2023-05-21T00:08:57;21.50;;;15.00;;
18387;SDS011;9320;50.256;19.026;2023-05-21T00:11:25;20.75;;;14.20;;
18387;SDS011;9320;50.256;19.026;2023-05-21T00:13:53;17.35;;;13.70;;
18387;SDS011;9320;50.256;19.026;2023-05-21T00:16:21;19.58;;;14.77;;
18387;SDS011;9320;50.256;19.026;2023-05-21T00:18:50;21.63;;;13.73;;
18387;SDS011;9320;50.256;19.026;2023-05-21T00:21:21;16.95;;;13.10;;
18387;SDS011;9320;50.256;19.026;2023-05-21T00:23:51;21.52;;;13.43;;
18387;SDS011;9320;50.256;19.026;2023-05-21T00:26:21;17.10;;;13.05;;
18387;SDS011;9320;50.256;19.026;2023-05-21T00:28:50;17.08;;;13.50;;
18387;SDS011;9320;50.256;19.026;2023-05-21T00:31:18;20.95;;;13.95;;
18387;SDS011;9320;50.256;19.026;2023-05-21T00:33:47;21.30;;;13.52;;
18387;SDS011;9320;50.256;19.026;2023-05-21T00:36:15;21.77;;;14.38;;
18387;SDS011;9320;50.256;19.026;2023-05-21T00:38:44;19.02;;;14.20;;
18387;SDS011;9320;50.256;19.026;2023-05-21T00:41:12;19.27;;;13.82;;
18387;SDS011;9320;50.256;19.026;2023-05-21T00:43:40;18.98;;;13.65;;
18387;SDS011;9320;50.256;19.026;2023-05-21T00:46:12;20.25;;;14.07;;
18387;SDS011;9320;50.256;19.026;2023-05-21T00:48:42;20.98;;;14.20;;
18387;SDS011;9320;50.256;19.026;2023-05-21T00:51:11;22.45;;;13.65;;
18387;SDS011;9320;50.256;19.026;2023-05-21T00:53:40;19.58;;;14.05;;
18387;SDS011;9320;50.256;19.026;2023-05-21T00:56:10;16.52;;;13.07;;
18387;SDS011;9320;50.256;19.026;2023-05-21T00:58:38;19.75;;;13.05;;
18387;SDS011;9320;50.256;19.026;2023-05-21T01:01:07;19.33;;;13.70;;
18387;SDS011;9320;50.256;19.026;2023-05-21T01:03:39;21.08;;;11.88;;
18387;SDS011;9320;50.256;19.026;2023-05-21T01:06:08;19.30;;;14.15;;
18387;SDS011;9320;50.256;19.026;2023-05-21T01:08:36;22.40;;;13.63;;
18387;SDS011;9320;50.256;19.026;2023-05-21T01:11:06;16.83;;;12.85;;
18387;SDS011;9320;50.256;19.026;2023-05-21T01:13:37;18.67;;;13.40;;
18387;SDS011;9320;50.256;19.026;2023-05-21T01:16:07;20.40;;;12.90;;
18387;SDS011;9320;50.256;19.026;2023-05-21T01:18:36;16.88;;;12.68;;
18387;SDS011;9320;50.256;19.026;2023-05-21T01:21:04;18.00;;;12.68;;
18387;SDS011;9320;50.256;19.026;2023-05-21T01:23:36;17.20;;;12.85;;
18387;SDS011;9320;50.256;19.026;2023-05-21T01:26:04;20.73;;;13.27;;
18387;SDS011;9320;50.256;19.026;2023-05-21T01:28:32;19.25;;;13.43;;
18387;SDS011;9320;50.256;19.026;2023-05-21T01:31:01;22.30;;;12.68;;
18387;SDS011;9320;50.256;19.026;2023-05-21T01:33:38;19.35;;;13.48;;
18387;SDS011;9320;50.256;19.026;2023-05-21T01:36:14;17.95;;;12.73;;
18387;SDS011;9320;50.256;19.026;2023-05-21T01:38:52;17.13;;;12.60;;
18387;SDS011;9320;50.256;19.026;2023-05-21T01:41:26;18.25;;;13.15;;
18387;SDS011;9320;50.256;19.026;2023-05-21T01:43:59;15.82;;;12.18;;
18387;SDS011;9320;50.256;19.026;2023-05-21T01:46:29;19.48;;;13.20;;
18387;SDS011;9320;50.256;19.026;2023-05-21T01:48:59;19.52;;;12.75;;
18387;SDS011;9320;50.256;19.026;2023-05-21T01:51:28;14.80;;;11.88;;
18387;SDS011;9320;50.256;19.026;2023-05-21T01:53:58;22.00;;;13.45;;
18387;SDS011;9320;50.256;19.026;2023-05-21T01:56:26;20.02;;;12.68;;
18387;SDS011;9320;50.256;19.026;2023-05-21T01:58:54;17.90;;;13.27;;
18387;SDS011;9320;50.256;19.026;2023-05-21T02:01:24;16.70;;;13.05;;
18387;SDS011;9320;50.256;19.026;2023-05-21T02:03:55;18.70;;;13.23;;
18387;SDS011;9320;50.256;19.026;2023-05-21T02:06:23;17.63;;;13.10;;
18387;SDS011;9320;50.256;19.026;2023-05-21T02:08:51;17.67;;;13.35;;
18387;SDS011;9320;50.256;19.026;2023-05-21T02:11:22;17.02;;;13.88;;
18387;SDS011;9320;50.256;19.026;2023-05-21T02:13:50;21.27;;;14.95;;
18387;SDS011;9320;50.256;19.026;2023-05-21T02:16:19;19.42;;;14.02;;
18387;SDS011;9320;50.256;19.026;2023-05-21T02:18:48;21.98;;;13.93;;
18387;SDS011;9320;50.256;19.026;2023-05-21T02:21:19;20.05;;;14.90;;
18387;SDS011;9320;50.256;19.026;2023-05-21T02:23:47;20.20;;;14.13;;
18387;SDS011;9320;50.256;19.026;2023-05-21T02:26:15;19.05;;;14.25;;
18387;SDS011;9320;50.256;19.026;2023-05-21T02:28:45;17.50;;;13.45;;
18387;SDS011;9320;50.256;19.026;2023-05-21T02:31:13;21.15;;;13.45;;
18387;SDS011;9320;50.256;19.026;2023-05-21T02:33:41;17.73;;;13.30;;
18387;SDS011;9320;50.256;19.026;2023-05-21T02:36:09;20.25;;;13.57;;
18387;SDS011;9320;50.256;19.026;2023-05-21T02:38:38;18.65;;;12.77;;
18387;SDS011;9320;50.256;19.026;2023-05-21T02:41:09;18.27;;;13.85;;
18387;SDS011;9320;50.256;19.026;2023-05-21T02:43:37;18.35;;;13.35;;
18387;SDS011;9320;50.256;19.026;2023-05-21T02:46:06;18.92;;;14.15;;
18387;SDS011;9320;50.256;19.026;2023-05-21T02:48:35;19.65;;;13.85;;
18387;SDS011;9320;50.256;19.026;2023-05-21T02:51:03;18.35;;;13.02;;
18387;SDS011;9320;50.256;19.026;2023-05-21T02:53:31;19.65;;;14.07;;
18387;SDS011;9320;50.256;19.026;2023-05-21T02:55:59;17.20;;;13.02;;
18387;SDS011;9320;50.256;19.026;2023-05-21T02:58:27;21.98;;;14.00;;
18387;SDS011;9320;50.256;19.026;2023-05-21T03:00:55;19.48;;;14.13;;
18387;SDS011;9320;50.256;19.026;2023-05-21T03:03:24;22.98;;;14.50;;
18387;SDS011;9320;50.256;19.026;2023-05-21T03:05:53;22.45;;;14.30;;
18387;SDS011;9320;50.256;19.026;2023-05-21T03:08:21;22.02;;;14.55;;
18387;SDS011;9320;50.256;19.026;2023-05-21T03:10:50;20.83;;;14.95;;
18387;SDS011;9320;50.256;19.026;2023-05-21T03:13:18;22.08;;;14.43;;
18387;SDS011;9320;50.256;19.026;2023-05-21T03:15:46;24.38;;;14.18;;
18387;SDS011;9320;50.256;19.026;2023-05-21T03:18:14;21.65;;;15.55;;
18387;SDS011;9320;50.256;19.026;2023-05-21T03:20:44;23.25;;;15.40;;
18387;SDS011;9320;50.256;19.026;2023-05-21T03:23:12;23.30;;;15.10;;
18387;SDS011;9320;50.256;19.026;2023-05-21T03:25:42;21.00;;;14.07;;
18387;SDS011;9320;50.256;19.026;2023-05-21T03:28:11;23.65;;;14.68;;
18387;SDS011;9320;50.256;19.026;2023-05-21T03:30:39;19.42;;;13.45;;
18387;SDS011;9320;50.256;19.026;2023-05-21T03:33:11;21.85;;;14.50;;
18387;SDS011;9320;50.256;19.026;2023-05-21T03:35:40;21.58;;;14.55;;
18387;SDS011;9320;50.256;19.026;2023-05-21T03:38:10;20.42;;;13.82;;
18387;SDS011;9320;50.256;19.026;2023-05-21T03:40:38;18.08;;;13.88;;
18387;SDS011;9320;50.256;19.026;2023-05-21T03:43:06;20.65;;;14.02;;
18387;SDS011;9320;50.256;19.026;2023-05-21T03:45:34;18.98;;;12.98;;
18387;SDS011;9320;50.256;19.026;2023-05-21T03:48:03;22.95;;;14.13;;
18387;SDS011;9320;50.256;19.026;2023-05-21T03:50:31;20.70;;;14.05;;
18387;SDS011;9320;50.256;19.026;2023-05-21T03:52:59;21.10;;;13.50;;
18387;SDS011;9320;50.256;19.026;2023-05-21T03:55:29;23.17;;;13.75;;
18387;SDS011;9320;50.256;19.026;2023-05-21T03:57:57;17.02;;;12.20;;
18387;SDS011;9320;50.256;19.026;2023-05-21T04:00:25;19.98;;;12.35;;
18387;SDS011;9320;50.256;19.026;2023-05-21T04:02:53;18.00;;;12.75;;
18387;SDS011;9320;50.256;19.026;2023-05-21T04:05:21;17.30;;;12.85;;
18387;SDS011;9320;50.256;19.026;2023-05-21T04:07:49;21.17;;;12.65;;
18387;SDS011;9320;50.256;19.026;2023-05-21T04:10:17;20.20;;;13.45;;
18387;SDS011;9320;50.256;19.026;2023-05-21T04:12:47;17.92;;;13.02;;
18387;SDS011;9320;50.256;19.026;2023-05-21T04:15:17;17.45;;;13.15;;
18387;SDS011;9320;50.256;19.026;2023-05-21T04:17:45;18.33;;;12.90;;
18387;SDS011;9320;50.256;19.026;2023-05-21T04:20:15;14.85;;;11.82;;
18387;SDS011;9320;50.256;19.026;2023-05-21T04:22:43;19.73;;;12.77;;
18387;SDS011;9320;50.256;19.026;2023-05-21T04:25:12;18.13;;;12.32;;
18387;SDS011;9320;50.256;19.026;2023-05-21T04:27:40;17.00;;;12.30;;
18387;SDS011;9320;50.256;19.026;2023-05-21T04:30:10;15.18;;;10.57;;
18387;SDS011;9320;50.256;19.026;2023-05-21T04:32:38;15.98;;;11.27;;
18387;SDS011;9320;50.256;19.026;2023-05-21T04:35:07;17.25;;;11.23;;
18387;SDS011;9320;50.256;19.026;2023-05-21T04:37:35;16.17;;;10.18;;
18387;SDS011;9320;50.256;19.026;2023-05-21T04:40:07;15.73;;;11.30;;
18387;SDS011;9320;50.256;19.026;2023-05-21T04:42:36;17.83;;;11.10;;
18387;SDS011;9320;50.256;19.026;2023-05-21T04:45:06;12.77;;;10.10;;
18387;SDS011;9320;50.256;19.026;2023-05-21T04:47:37;12.80;;;10.18;;
18387;SDS011;9320;50.256;19.026;2023-05-21T04:50:05;14.32;;;10.63;;
18387;SDS011;9320;50.256;19.026;2023-05-21T04:52:34;13.35;;;9.52;;
18387;SDS011;9320;50.256;19.026;2023-05-21T04:55:02;17.45;;;10.50;;
18387;SDS011;9320;50.256;19.026;2023-05-21T04:57:31;17.02;;;11.07;;
18387;SDS011;9320;50.256;19.026;2023-05-21T04:59:59;16.75;;;10.90;;
18387;SDS011;9320;50.256;19.026;2023-05-21T05:02:29;12.20;;;10.80;;
18387;SDS011;9320;50.256;19.026;2023-05-21T05:04:58;13.30;;;10.95;;
18387;SDS011;9320;50.256;19.026;2023-05-21T05:07:26;15.93;;;10.80;;
18387;SDS011;9320;50.256;19.026;2023-05-21T05:09:54;16.95;;;10.60;;
18387;SDS011;9320;50.256;19.026;2023-05-21T05:12:22;18.58;;;10.95;;
18387;SDS011;9320;50.256;19.026;2023-05-21T05:14:50;13.05;;;10.55;;
18387;SDS011;9320;50.256;19.026;2023-05-21T05:17:18;14.13;;;11.07;;
18387;SDS011;9320;50.256;19.026;2023-05-21T05:19:46;14.38;;;10.98;;
18387;SDS011;9320;50.256;19.026;2023-05-21T05:22:15;12.65;;;10.45;;
18387;SDS011;9320;50.256;19.026;2023-05-21T05:24:43;13.38;;;10.75;;
18387;SDS011;9320;50.256;19.026;2023-05-21T05:27:11;12.73;;;10.82;;
18387;SDS011;9320;50.256;19.026;2023-05-21T05:29:39;15.75;;;10.73;;
18387;SDS011;9320;50.256;19.026;2023-05-21T05:32:07;13.88;;;10.80;;
18387;SDS011;9320;50.256;19.026;2023-05-21T05:34:35;14.82;;;11.15;;
18387;SDS011;9320;50.256;19.026;2023-05-21T05:37:04;18.52;;;11.05;;
18387;SDS011;9320;50.256;19.026;2023-05-21T05:39:33;10.85;;;9.70;;
18387;SDS011;9320;50.256;19.026;2023-05-21T05:42:02;12.30;;;10.40;;
18387;SDS011;9320;50.256;19.026;2023-05-21T05:44:30;17.98;;;10.40;;
18387;SDS011;9320;50.256;19.026;2023-05-21T05:46:58;13.77;;;10.48;;
18387;SDS011;9320;50.256;19.026;2023-05-21T05:49:26;12.25;;;10.30;;
18387;SDS011;9320;50.256;19.026;2023-05-21T05:51:54;14.18;;;11.23;;
18387;SDS011;9320;50.256;19.026;2023-05-21T05:54:22;13.27;;;10.77;;
18387;SDS011;9320;50.256;19.026;2023-05-21T05:56:52;10.48;;;9.35;;
18387;SDS011;9320;50.256;19.026;2023-05-21T05:59:20;13.25;;;10.23;;
18387;SDS011;9320;50.256;19.026;2023-05-21T06:01:48;18.48;;;12.90;;
18387;SDS011;9320;50.256;19.026;2023-05-21T06:04:16;16.83;;;11.98;;
18387;SDS011;9320;50.256;19.026;2023-05-21T06:06:44;17.60;;;11.38;;
18387;SDS011;9320;50.256;19.026;2023-05-21T06:09:12;20.25;;;13.25;;
18387;SDS011;9320;50.256;19.026;2023-05-21T06:11:40;13.93;;;11.32;;
18387;SDS011;9320;50.256;19.026;2023-05-21T06:14:10;15.93;;;11.20;;
18387;SDS011;9320;50.256;19.026;2023-05-21T06:16:38;18.10;;;10.90;;
18387;SDS011;9320;50.256;19.026;2023-05-21T06:19:06;14.73;;;10.50;;
18387;SDS011;9320;50.256;19.026;2023-05-21T06:21:34;11.75;;;9.75;;
18387;SDS011;9320;50.256;19.026;2023-05-21T06:24:02;11.48;;;10.27;;
18387;SDS011;9320;50.256;19.026;2023-05-21T06:26:30;16.55;;;9.95;;
18387;SDS011;9320;50.256;19.026;2023-05-21T06:28:58;11.43;;;9.80;;
18387;SDS011;9320;50.256;19.026;2023-05-21T06:31:28;13.68;;;9.13;;
18387;SDS011;9320;50.256;19.026;2023-05-21T06:33:58;10.65;;;9.15;;
18387;SDS011;9320;50.256;19.026;2023-05-21T06:36:27;12.00;;;9.15;;
18387;SDS011;9320;50.256;19.026;2023-05-21T06:38:55;16.13;;;9.38;;
18387;SDS011;9320;50.256;19.026;2023-05-21T06:41:23;11.90;;;9.82;;
18387;SDS011;9320;50.256;19.026;2023-05-21T06:43:51;13.43;;;9.40;;
18387;SDS011;9320;50.256;19.026;2023-05-21T06:46:19;15.20;;;9.73;;
18387;SDS011;9320;50.256;19.026;2023-05-21T06:48:49;13.35;;;9.30;;
18387;SDS011;9320;50.256;19.026;2023-05-21T06:51:17;12.63;;;9.20;;
18387;SDS011;9320;50.256;19.026;2023-05-21T06:53:45;11.57;;;8.73;;
18387;SDS011;9320;50.256;19.026;2023-05-21T06:56:13;11.48;;;9.20;;
18387;SDS011;9320;50.256;19.026;2023-05-21T06:58:41;17.10;;;8.88;;
18387;SDS011;9320;50.256;19.026;2023-05-21T07:01:09;11.00;;;8.88;;
18387;SDS011;9320;50.256;19.026;2023-05-21T07:03:37;9.95;;;8.48;;
18387;SDS011;9320;50.256;19.026;2023-05-21T07:06:07;14.30;;;8.63;;
18387;SDS011;9320;50.256;19.026;2023-05-21T07:08:35;9.63;;;8.63;;
18387;SDS011;9320;50.256;19.026;2023-05-21T07:11:03;12.93;;;8.30;;
18387;SDS011;9320;50.256;19.026;2023-05-21T07:13:31;12.27;;;8.30;;
18387;SDS011;9320;50.256;19.026;2023-05-21T07:15:59;12.63;;;8.15;;
18387;SDS011;9320;50.256;19.026;2023-05-21T07:18:27;10.45;;;7.85;;
18387;SDS011;9320;50.256;19.026;2023-05-21T07:20:55;10.38;;;8.30;;
18387;SDS011;9320;50.256;19.026;2023-05-21T07:23:25;10.55;;;7.75;;
18387;SDS011;9320;50.256;19.026;2023-05-21T07:25:53;10.27;;;7.47;;
18387;SDS011;9320;50.256;19.026;2023-05-21T07:28:21;13.70;;;7.82;;
18387;SDS011;9320;50.256;19.026;2023-05-21T07:30:49;9.98;;;7.32;;
18387;SDS011;9320;50.256;19.026;2023-05-21T07:33:17;8.23;;;7.35;;
18387;SDS011;9320;50.256;19.026;2023-05-21T07:35:47;12.38;;;7.47;;
18387;SDS011;9320;50.256;19.026;2023-05-21T07:38:15;12.57;;;7.60;;
18387;SDS011;9320;50.256;19.026;2023-05-21T07:40:45;14.88;;;7.43;;
18387;SDS011;9320;50.256;19.026;2023-05-21T07:43:13;16.13;;;6.97;;
18387;SDS011;9320;50.256;19.026;2023-05-21T07:45:41;12.75;;;6.55;;
18387;SDS011;9320;50.256;19.026;2023-05-21T07:48:09;11.15;;;6.47;;
18387;SDS011;9320;50.256;19.026;2023-05-21T07:50:37;9.98;;;6.32;;
18387;SDS011;9320;50.256;19.026;2023-05-21T07:53:05;6.55;;;5.85;;
18387;SDS011;9320;50.256;19.026;2023-05-21T07:55:33;8.25;;;5.93;;
18387;SDS011;9320;50.256;19.026;2023-05-21T07:58:03;7.60;;;5.65;;
18387;SDS011;9320;50.256;19.026;2023-05-21T08:00:34;8.50;;;5.78;;
18387;SDS011;9320;50.256;19.026;2023-05-21T08:03:09;15.75;;;5.55;;
18387;SDS011;9320;50.256;19.026;2023-05-21T08:05:38;12.57;;;5.50;;
18387;SDS011;9320;50.256;19.026;2023-05-21T08:08:06;9.93;;;5.90;;
18387;SDS011;9320;50.256;19.026;2023-05-21T08:10:34;11.05;;;4.93;;
18387;SDS011;9320;50.256;19.026;2023-05-21T08:13:03;10.93;;;5.28;;
18387;SDS011;9320;50.256;19.026;2023-05-21T08:15:31;7.15;;;4.55;;
18387;SDS011;9320;50.256;19.026;2023-05-21T08:17:59;9.30;;;5.05;;
18387;SDS011;9320;50.256;19.026;2023-05-21T08:20:28;10.85;;;5.00;;
18387;SDS011;9320;50.256;19.026;2023-05-21T08:22:57;7.40;;;4.90;;
18387;SDS011;9320;50.256;19.026;2023-05-21T08:25:26;6.57;;;4.43;;
18387;SDS011;9320;50.256;19.026;2023-05-21T08:27:54;8.57;;;4.88;;
18387;SDS011;9320;50.256;19.026;2023-05-21T08:30:23;11.23;;;5.10;;
18387;SDS011;9320;50.256;19.026;2023-05-21T08:32:51;6.40;;;4.60;;
18387;SDS011;9320;50.256;19.026;2023-05-21T08:35:20;9.05;;;4.30;;
18387;SDS011;9320;50.256;19.026;2023-05-21T08:37:48;12.73;;;4.65;;
18387;SDS011;9320;50.256;19.026;2023-05-21T08:40:16;6.40;;;4.30;;
18387;SDS011;9320;50.256;19.026;2023-05-21T08:42:45;10.82;;;4.20;;
18387;SDS011;9320;50.256;19.026;2023-05-21T08:45:18;9.50;;;4.10;;
18387;SDS011;9320;50.256;19.026;2023-05-21T08:47:52;14.90;;;4.53;;
18387;SDS011;9320;50.256;19.026;2023-05-21T08:50:23;8.68;;;4.20;;
18387;SDS011;9320;50.256;19.026;2023-05-21T08:52:54;13.90;;;4.30;;
18387;SDS011;9320;50.256;19.026;2023-05-21T08:55:24;8.48;;;4.20;;
18387;SDS011;9320;50.256;19.026;2023-05-21T08:57:53;7.65;;;4.20;;
18387;SDS011;9320;50.256;19.026;2023-05-21T09:00:21;7.68;;;4.20;;
18387;SDS011;9320;50.256;19.026;2023-05-21T09:02:50;6.40;;;3.92;;
18387;SDS011;9320;50.256;19.026;2023-05-21T09:05:20;12.07;;;4.50;;
18387;SDS011;9320;50.256;19.026;2023-05-21T09:07:50;9.10;;;4.22;;
18387;SDS011;9320;50.256;19.026;2023-05-21T09:10:28;7.68;;;4.15;;
18387;SDS011;9320;50.256;19.026;2023-05-21T09:13:02;11.10;;;4.45;;
18387;SDS011;9320;50.256;19.026;2023-05-21T09:15:30;12.43;;;4.00;;
18387;SDS011;9320;50.256;19.026;2023-05-21T09:18:00;8.05;;;4.18;;
18387;SDS011;9320;50.256;19.026;2023-05-21T09:20:28;4.63;;;3.72;;
18387;SDS011;9320;50.256;19.026;2023-05-21T09:22:57;4.80;;;3.88;;
18387;SDS011;9320;50.256;19.026;2023-05-21T09:25:30;11.27;;;4.05;;
18387;SDS011;9320;50.256;19.026;2023-05-21T09:27:58;6.78;;;3.83;;
18387;SDS011;9320;50.256;19.026;2023-05-21T09:30:26;14.95;;;3.90;;
18387;SDS011;9320;50.256;19.026;2023-05-21T09:32:58;12.07;;;4.22;;
18387;SDS011;9320;50.256;19.026;2023-05-21T09:35:28;7.55;;;3.65;;
18387;SDS011;9320;50.256;19.026;2023-05-21T09:37:56;7.18;;;3.90;;
18387;SDS011;9320;50.256;19.026;2023-05-21T09:40:24;8.75;;;3.90;;
18387;SDS011;9320;50.256;19.026;2023-05-21T09:42:53;8.57;;;3.90;;
18387;SDS011;9320;50.256;19.026;2023-05-21T09:45:22;9.52;;;3.95;;
18387;SDS011;9320;50.256;19.026;2023-05-21T09:47:51;11.70;;;3.92;;
18387;SDS011;9320;50.256;19.026;2023-05-21T09:50:22;7.85;;;3.88;;
18387;SDS011;9320;50.256;19.026;2023-05-21T09:52:52;11.07;;;4.10;;
18387;SDS011;9320;50.256;19.026;2023-05-21T09:55:21;6.80;;;3.90;;
18387;SDS011;9320;50.256;19.026;2023-05-21T09:57:50;7.80;;;4.30;;
18387;SDS011;9320;50.256;19.026;2023-05-21T10:00:18;4.95;;;3.60;;
18387;SDS011;9320;50.256;19.026;2023-05-21T10:02:48;5.80;;;3.75;;
18387;SDS011;9320;50.256;19.026;2023-05-21T10:05:22;5.80;;;3.88;;
18387;SDS011;9320;50.256;19.026;2023-05-21T10:07:56;19.27;;;4.00;;
18387;SDS011;9320;50.256;19.026;2023-05-21T10:10:27;3.97;;;3.55;;
18387;SDS011;9320;50.256;19.026;2023-05-21T10:12:58;6.05;;;4.15;;
18387;SDS011;9320;50.256;19.026;2023-05-21T10:15:34;6.57;;;3.85;;
18387;SDS011;9320;50.256;19.026;2023-05-21T10:18:04;10.88;;;3.90;;
18387;SDS011;9320;50.256;19.026;2023-05-21T10:20:36;10.48;;;4.28;;
18387;SDS011;9320;50.256;19.026;2023-05-21T10:23:04;8.43;;;4.00;;
18387;SDS011;9320;50.256;19.026;2023-05-21T10:25:33;5.40;;;4.10;;
18387;SDS011;9320;50.256;19.026;2023-05-21T10:28:02;6.10;;;4.25;;
18387;SDS011;9320;50.256;19.026;2023-05-21T10:30:33;8.82;;;4.20;;
18387;SDS011;9320;50.256;19.026;2023-05-21T10:33:03;9.35;;;4.20;;
18387;SDS011;9320;50.256;19.026;2023-05-21T10:35:31;5.72;;;4.28;;
18387;SDS011;9320;50.256;19.026;2023-05-21T10:38:02;16.40;;;4.15;;
18387;SDS011;9320;50.256;19.026;2023-05-21T10:40:31;9.23;;;4.50;;
18387;SDS011;9320;50.256;19.026;2023-05-21T10:43:07;5.75;;;4.50;;
18387;SDS011;9320;50.256;19.026;2023-05-21T10:46:00;6.80;;;4.30;;
18387;SDS011;9320;50.256;19.026;2023-05-21T10:48:47;12.77;;;4.40;;
18387;SDS011;9320;50.256;19.026;2023-05-21T10:51:25;5.97;;;4.70;;
18387;SDS011;9320;50.256;19.026;2023-05-21T10:54:01;12.80;;;4.55;;
18387;SDS011;9320;50.256;19.026;2023-05-21T10:57:00;4.90;;;4.30;;
18387;SDS011;9320;50.256;19.026;2023-05-21T10:59:39;5.93;;;4.30;;
18387;SDS011;9320;50.256;19.026;2023-05-21T11:02:10;8.02;;;4.95;;
18387;SDS011;9320;50.256;19.026;2023-05-21T11:04:41;9.50;;;4.78;;
18387;SDS011;9320;50.256;19.026;2023-05-21T11:07:11;9.13;;;4.70;;
18387;SDS011;9320;50.256;19.026;2023-05-21T11:09:40;6.78;;;4.75;;
18387;SDS011;9320;50.256;19.026;2023-05-21T11:12:08;6.93;;;4.80;;
18387;SDS011;9320;50.256;19.026;2023-05-21T11:14:38;7.25;;;4.78;;
18387;SDS011;9320;50.256;19.026;2023-05-21T11:17:09;7.03;;;4.65;;
18387;SDS011;9320;50.256;19.026;2023-05-21T11:19:40;6.95;;;4.75;;
18387;SDS011;9320;50.256;19.026;2023-05-21T11:22:18;7.57;;;4.97;;
18387;SDS011;9320;50.256;19.026;2023-05-21T11:24:50;15.00;;;5.30;;
18387;SDS011;9320;50.256;19.026;2023-05-21T11:27:29;10.75;;;5.00;;
18387;SDS011;9320;50.256;19.026;2023-05-21T11:29:59;7.07;;;4.45;;
18387;SDS011;9320;50.256;19.026;2023-05-21T11:32:29;9.18;;;5.00;;
18387;SDS011;9320;50.256;19.026;2023-05-21T11:34:58;10.52;;;4.68;;
18387;SDS011;9320;50.256;19.026;2023-05-21T11:37:28;5.35;;;4.63;;
18387;SDS011;9320;50.256;19.026;2023-05-21T11:42:48;6.47;;;4.70;;
18387;SDS011;9320;50.256;19.026;2023-05-21T11:45:17;6.55;;;4.80;;
18387;SDS011;9320;50.256;19.026;2023-05-21T11:47:46;6.95;;;4.95;;
18387;SDS011;9320;50.256;19.026;2023-05-21T11:50:14;5.70;;;5.10;;
18387;SDS011;9320;50.256;19.026;2023-05-21T11:52:44;13.75;;;5.38;;
18387;SDS011;9320;50.256;19.026;2023-05-21T11:55:14;9.23;;;5.05;;
18387;SDS011;9320;50.256;19.026;2023-05-21T11:57:42;11.88;;;5.03;;
18387;SDS011;9320;50.256;19.026;2023-05-21T12:00:13;9.68;;;5.07;;
18387;SDS011;9320;50.256;19.026;2023-05-21T12:02:43;10.40;;;5.10;;
18387;SDS011;9320;50.256;19.026;2023-05-21T12:05:12;12.73;;;4.70;;
18387;SDS011;9320;50.256;19.026;2023-05-21T12:07:40;10.43;;;5.25;;
18387;SDS011;9320;50.256;19.026;2023-05-21T12:10:09;6.93;;;5.13;;
18387;SDS011;9320;50.256;19.026;2023-05-21T12:12:39;6.95;;;5.13;;
18387;SDS011;9320;50.256;19.026;2023-05-21T12:15:21;6.82;;;5.00;;
18387;SDS011;9320;50.256;19.026;2023-05-21T12:17:50;10.63;;;5.20;;
18387;SDS011;9320;50.256;19.026;2023-05-21T12:20:19;7.63;;;5.13;;
18387;SDS011;9320;50.256;19.026;2023-05-21T12:22:48;7.13;;;5.15;;
18387;SDS011;9320;50.256;19.026;2023-05-21T12:25:17;7.72;;;4.90;;
18387;SDS011;9320;50.256;19.026;2023-05-21T12:27:48;8.63;;;4.88;;
18387;SDS011;9320;50.256;19.026;2023-05-21T12:30:18;6.82;;;4.88;;
18387;SDS011;9320;50.256;19.026;2023-05-21T12:32:47;8.15;;;4.72;;
18387;SDS011;9320;50.256;19.026;2023-05-21T12:35:19;8.60;;;5.03;;
18387;SDS011;9320;50.256;19.026;2023-05-21T12:37:49;9.35;;;4.80;;
18387;SDS011;9320;50.256;19.026;2023-05-21T12:40:17;9.05;;;4.90;;
18387;SDS011;9320;50.256;19.026;2023-05-21T12:42:48;9.18;;;4.78;;
18387;SDS011;9320;50.256;19.026;2023-05-21T12:45:17;6.28;;;4.55;;
18387;SDS011;9320;50.256;19.026;2023-05-21T12:47:47;6.68;;;4.90;;
18387;SDS011;9320;50.256;19.026;2023-05-21T12:50:21;5.80;;;4.90;;
18387;SDS011;9320;50.256;19.026;2023-05-21T12:52:52;6.80;;;4.93;;
18387;SDS011;9320;50.256;19.026;2023-05-21T12:55:21;7.53;;;5.00;;
18387;SDS011;9320;50.256;19.026;2023-05-21T12:58:00;6.72;;;5.05;;
18387;SDS011;9320;50.256;19.026;2023-05-21T13:00:30;7.00;;;5.18;;
18387;SDS011;9320;50.256;19.026;2023-05-21T13:02:58;6.63;;;4.70;;
18387;SDS011;9320;50.256;19.026;2023-05-21T13:05:27;8.88;;;5.00;;
18387;SDS011;9320;50.256;19.026;2023-05-21T13:07:55;7.35;;;5.28;;
18387;SDS011;9320;50.256;19.026;2023-05-21T13:10:23;5.80;;;5.05;;
18387;SDS011;9320;50.256;19.026;2023-05-21T13:12:51;6.53;;;5.00;;
18387;SDS011;9320;50.256;19.026;2023-05-21T13:15:20;7.53;;;4.90;;
18387;SDS011;9320;50.256;19.026;2023-05-21T13:17:48;5.38;;;4.72;;
18387;SDS011;9320;50.256;19.026;2023-05-21T13:20:19;7.53;;;4.85;;
18387;SDS011;9320;50.256;19.026;2023-05-21T13:22:51;7.38;;;5.05;;
18387;SDS011;9320;50.256;19.026;2023-05-21T13:25:21;10.10;;;4.65;;
18387;SDS011;9320;50.256;19.026;2023-05-21T13:27:50;6.68;;;5.00;;
18387;SDS011;9320;50.256;19.026;2023-05-21T13:30:21;10.32;;;4.60;;
18387;SDS011;9320;50.256;19.026;2023-05-21T13:32:49;11.73;;;5.40;;
18387;SDS011;9320;50.256;19.026;2023-05-21T13:35:17;6.65;;;4.90;;
18387;SDS011;9320;50.256;19.026;2023-05-21T13:37:46;5.32;;;4.78;;
18387;SDS011;9320;50.256;19.026;2023-05-21T13:40:14;9.43;;;4.88;;
18387;SDS011;9320;50.256;19.026;2023-05-21T13:42:43;7.78;;;4.60;;
18387;SDS011;9320;50.256;19.026;2023-05-21T13:45:13;9.88;;;5.07;;
18387;SDS011;9320;50.256;19.026;2023-05-21T13:47:43;7.10;;;4.80;;
18387;SDS011;9320;50.256;19.026;2023-05-21T13:50:14;5.68;;;5.07;;
18387;SDS011;9320;50.256;19.026;2023-05-21T13:52:42;6.88;;;5.00;;
18387;SDS011;9320;50.256;19.026;2023-05-21T13:55:11;6.65;;;4.82;;
18387;SDS011;9320;50.256;19.026;2023-05-21T13:57:41;7.50;;;5.30;;
18387;SDS011;9320;50.256;19.026;2023-05-21T14:00:09;6.00;;;4.63;;
18387;SDS011;9320;50.256;19.026;2023-05-21T14:02:41;6.10;;;5.50;;
18387;SDS011;9320;50.256;19.026;2023-05-21T14:05:11;6.18;;;4.85;;
18387;SDS011;9320;50.256;19.026;2023-05-21T14:07:39;7.28;;;5.53;;
18387;SDS011;9320;50.256;19.026;2023-05-21T14:10:08;8.18;;;4.85;;
18387;SDS011;9320;50.256;19.026;2023-05-21T14:12:37;5.35;;;4.80;;
18387;SDS011;9320;50.256;19.026;2023-05-21T14:15:06;6.28;;;5.30;;
18387;SDS011;9320;50.256;19.026;2023-05-21T14:17:34;5.95;;;5.22;;
18387;SDS011;9320;50.256;19.026;2023-05-21T14:20:06;6.82;;;5.03;;
18387;SDS011;9320;50.256;19.026;2023-05-21T14:22:36;9.90;;;5.10;;
18387;SDS011;9320;50.256;19.026;2023-05-21T14:25:05;6.20;;;4.72;;
18387;SDS011;9320;50.256;19.026;2023-05-21T14:27:33;5.63;;;4.82;;
18387;SDS011;9320;50.256;19.026;2023-05-21T14:30:03;7.70;;;5.15;;
18387;SDS011;9320;50.256;19.026;2023-05-21T14:32:32;7.03;;;4.97;;
18387;SDS011;9320;50.256;19.026;2023-05-21T14:35:00;5.70;;;5.10;;
18387;SDS011;9320;50.256;19.026;2023-05-21T14:37:28;5.75;;;5.07;;
18387;SDS011;9320;50.256;19.026;2023-05-21T14:39:57;7.90;;;5.32;;
18387;SDS011;9320;50.256;19.026;2023-05-21T14:42:25;7.05;;;5.15;;
18387;SDS011;9320;50.256;19.026;2023-05-21T14:44:53;7.88;;;5.13;;
18387;SDS011;9320;50.256;19.026;2023-05-21T14:47:21;6.55;;;4.90;;
18387;SDS011;9320;50.256;19.026;2023-05-21T14:49:49;10.20;;;5.43;;